Rehovot, Israel
Current Conditions -  °F | °C
As of 7:50 PM on Monday 22 Dec 2014 (Local Time) from LLBG Reporting Station
Light Rain Light Rain  
Wind Chill: 55°   Ceiling: 3000
Heat Index: 55°   Visibility: 6mi
Dew Point: 54°   Wind: 2mph
Humidity: 94%   Direction: NA
Pressure: 30.03"   Gusts: NA
Location:  31.89°N, 34.8°E
Report Text: LLBG 221650Z VRB02KT 9000 -RA BKN030 13/12 Q1017 TEMPO 7000 RAFEW025TCU RMK OVC060
Loading
Personal Weather Stations






























Interactive Weather Map New forecast layout! Learn more

10-Day Weather Forecast

Advertisements
Track Severe Weather on mobile